Time;durP1;ratioP1;P1;durP2;ratioP2;P2;SDS_P1;SDS_P2;PMS_P1;PMS_P2;Temp;Humidity;BMP_temperature;BMP_pressure;BME280_temperature;BME280_humidity;BME280_pressure;Samples;Min_cycle;Max_cycle;Signal;HPM_P1;HPM_P2
2022/02/02 00:01:59;;;;;;;39.08;24.88;;;77.60;2227.20;;;;;;4940228;29;20027;-83
2022/02/02 00:04:29;;;;;;;40.65;26.13;;;77.60;2227.20;;;;;;4939890;29;20036;-82
2022/02/02 00:09:21;;;;;;;45.65;28.30;;;77.50;2227.20;;;;;;4939712;29;20530;-86
2022/02/02 00:14:45;;;;;;;50.67;31.50;;;77.40;2227.20;;;;;;4939805;29;20052;-90
2022/02/02 00:17:19;;;;;;;56.03;34.45;;;77.50;2227.20;;;;;;4938882;29;20487;-89
2022/02/02 00:20:01;;;;;;;62.38;39.35;;;77.40;2227.20;;;;;;4922266;29;20047;-83
2022/02/02 00:22:34;;;;;;;69.23;42.20;;;77.50;2227.20;;;;;;4922643;29;20028;-88
2022/02/02 00:27:39;;;;;;;58.60;36.95;;;77.40;2227.20;;;;;;4939657;29;20063;-86
2022/02/02 00:30:08;;;;;;;67.07;39.90;;;77.50;2227.20;;;;;;4921945;29;20035;-84
2022/02/02 00:35:00;;;;;;;54.90;34.97;;;77.50;2227.20;;;;;;4939202;29;20058;-84
2022/02/02 00:37:26;;;;;;;50.55;32.83;;;77.50;2227.20;;;;;;4939227;29;20028;-89
2022/02/02 00:39:55;;;;;;;50.40;31.40;;;77.50;2227.20;;;;;;4922443;29;20494;-91
2022/02/02 00:42:23;;;;;;;47.15;30.58;;;77.50;2227.20;;;;;;4921973;29;20039;-87
2022/02/02 00:44:53;;;;;;;42.85;29.30;;;77.50;2227.20;;;;;;4922156;29;20114;-84
2022/02/02 00:47:23;;;;;;;50.53;30.45;;;77.50;2227.20;;;;;;4922060;29;20472;-82
2022/02/02 00:49:49;;;;;;;44.33;27.90;;;77.50;2227.20;;;;;;4921922;29;20038;-87
2022/02/02 00:52:16;;;;;;;52.70;32.03;;;77.60;2227.20;;;;;;4938942;29;20103;-85
2022/02/02 00:54:42;;;;;;;45.90;31.05;;;77.60;2227.20;;;;;;4921773;29;20106;-88
2022/02/02 00:57:08;;;;;;;56.30;33.65;;;77.50;2227.20;;;;;;4938454;29;20028;-85
2022/02/02 00:59:34;;;;;;;56.25;33.75;;;77.50;2227.20;;;;;;4921719;29;20063;-85
2022/02/02 01:02:00;;;;;;;60.33;33.40;;;77.50;2227.20;;;;;;4921809;29;20035;-84
2022/02/02 01:04:26;;;;;;;59.35;37.15;;;77.50;2227.20;;;;;;4921697;29;20452;-87
2022/02/02 01:09:47;;;;;;;59.45;36.25;;;77.40;2227.20;;;;;;4938769;29;20514;-88
2022/02/02 01:28:25;;;;;;;55.88;32.83;;;77.40;2227.20;;;;;;4938481;29;20090;-87
2022/02/02 01:30:52;;;;;;;50.33;30.75;;;102.40;2227.20;;;;;;4937878;29;20468;-86
2022/02/02 01:33:18;;;;;;;48.63;29.85;;;77.40;2227.20;;;;;;4920786;29;20024;-89
2022/02/02 01:35:44;;;;;;;47.17;28.17;;;77.30;2227.20;;;;;;4921238;29;20036;-89
2022/02/02 01:38:10;;;;;;;38.83;24.48;;;77.30;2227.20;;;;;;4921053;29;20032;-83
2022/02/02 01:40:42;;;;;;;40.95;26.67;;;77.30;2227.20;;;;;;4921199;29;20023;-85
2022/02/02 01:43:16;;;;;;;40.17;24.00;;;77.20;2227.20;;;;;;4938267;29;20031;-83
2022/02/02 01:45:52;;;;;;;30.27;21.65;;;77.20;2227.20;;;;;;4938205;29;20095;-89
2022/02/02 01:51:43;;;;;;;35.35;21.63;;;77.20;2227.20;;;;;;4937789;29;20555;-86
2022/02/02 01:56:11;;;;;;;45.40;27.43;;;77.20;2227.20;;;;;;4937922;29;20039;-84
2022/02/02 02:01:12;;;;;;;46.55;29.30;;;77.10;2227.20;;;;;;4937586;29;20082;-87
2022/02/02 02:03:38;;;;;;;41.97;27.17;;;77.10;2227.20;;;;;;4920495;29;20453;-82
2022/02/02 02:06:05;;;;;;;44.05;26.73;;;77.10;2227.20;;;;;;4920155;29;20487;-83
2022/02/02 02:08:32;;;;;;;43.17;25.25;;;77.10;2227.20;;;;;;4937720;29;20103;-83
2022/02/02 02:10:58;;;;;;;48.63;28.63;;;77.10;2227.20;;;;;;4920674;29;20055;-88
2022/02/02 02:14:00;;;;;;;44.20;25.52;;;77.00;2227.20;;;;;;4920543;29;20435;-85
2022/02/02 02:16:21;;;;;;;40.45;22.17;;;76.90;2227.20;;;;;;4937094;29;20024;-88
2022/02/02 02:18:46;;;;;;;41.88;25.77;;;76.90;2227.20;;;;;;4920069;29;20051;-86
2022/02/02 02:21:15;;;;;;;38.08;24.13;;;76.90;2227.20;;;;;;4920487;29;20028;-85
2022/02/02 02:23:43;;;;;;;30.85;20.02;;;76.90;2227.20;;;;;;4920787;29;20039;-89
2022/02/02 02:26:11;;;;;;;53.55;28.75;;;77.30;2227.20;;;;;;4920365;29;20036;-86
2022/02/02 02:31:19;;;;;;;43.78;25.75;;;76.80;2227.20;;;;;;4937278;29;20034;-87
2022/02/02 02:39:17;;;;;;;45.17;25.55;;;52.10;2227.20;;;;;;4936418;29;20059;-84
2022/02/02 02:58:44;;;;;;;37.03;21.58;;;52.10;2227.20;;;;;;4937104;29;20061;-85
2022/02/02 03:30:53;;;;;;;50.97;28.40;;;51.90;2227.20;;;;;;4936841;29;20063;-85
2022/02/02 03:57:49;;;;;;;37.97;22.45;;;51.90;2227.20;;;;;;4940092;29;20038;-88
2022/02/02 04:10:45;;;;;;;65.30;39.03;;;51.70;2227.20;;;;;;4939680;29;20372;-88
2022/02/02 05:06:41;;;;;;;49.78;28.45;;;25.90;2201.60;;;;;;4938236;29;20031;-89
2022/02/02 05:09:30;;;;;;;58.80;30.38;;;25.70;2201.60;;;;;;4921932;29;20035;-88
2022/02/02 05:49:49;;;;;;;59.22;35.47;;;0.70;2201.60;;;;;;4938103;29;20086;-87
2022/02/02 05:52:15;;;;;;;67.07;38.53;;;0.80;2201.60;;;;;;4921326;29;20039;-88
2022/02/02 05:54:41;;;;;;;67.32;40.25;;;0.80;2201.60;;;;;;4920626;29;20028;-91
2022/02/02 05:57:15;;;;;;;69.35;46.97;;;0.80;2201.60;;;;;;4921364;29;20484;-87
2022/02/02 05:59:44;;;;;;;79.97;46.40;;;0.80;2201.60;;;;;;4920906;29;20031;-86
2022/02/02 06:02:13;;;;;;;92.53;48.80;;;0.80;2201.60;;;;;;4920627;29;20031;-90
2022/02/02 06:04:45;;;;;;;92.13;51.72;;;0.80;2201.60;;;;;;4920664;29;20468;-86
2022/02/02 06:07:11;;;;;;;80.13;49.28;;;0.70;2201.60;;;;;;4920753;29;20082;-86
2022/02/02 06:09:39;;;;;;;92.68;52.20;;;0.70;2201.60;;;;;;4920386;29;20039;-87
2022/02/02 06:12:07;;;;;;;96.22;53.17;;;0.80;2201.60;;;;;;4920594;29;20055;-86
2022/02/02 06:14:33;;;;;;;86.95;49.17;;;0.70;2201.60;;;;;;4919712;29;20059;-89
2022/02/02 06:17:04;;;;;;;84.60;50.35;;;0.80;2201.60;;;;;;4920399;29;20122;-89
2022/02/02 06:19:30;;;;;;;69.88;41.35;;;0.90;2201.60;;;;;;4920393;29;20055;-90
2022/02/02 06:22:17;;;;;;;74.68;47.03;;;0.90;2201.60;;;;;;4920360;29;20119;-88
2022/02/02 06:25:01;;;;;;;135.88;82.68;;;0.70;2201.60;;;;;;4920579;29;20034;-88
2022/02/02 06:27:27;;;;;;;145.48;91.80;;;0.60;2201.60;;;;;;4920422;29;20036;-88
2022/02/02 06:30:12;;;;;;;135.88;80.10;;;0.70;2201.60;;;;;;4920092;29;20036;-88
2022/02/02 06:32:52;;;;;;;90.80;52.40;;;0.70;2201.60;;;;;;4920391;29;20027;-86
2022/02/02 06:35:20;;;;;;;83.88;52.08;;;0.60;2201.60;;;;;;4920467;29;20030;-90
2022/02/02 06:37:48;;;;;;;86.55;55.65;;;0.60;2201.60;;;;;;4919823;29;20035;-87
2022/02/02 06:40:16;;;;;;;105.85;70.07;;;0.70;2201.60;;;;;;4920059;29;20063;-90
2022/02/02 06:42:42;;;;;;;102.35;58.88;;;0.80;2201.60;;;;;;4920075;29;20118;-87
2022/02/02 06:45:11;;;;;;;103.03;59.80;;;0.80;2201.60;;;;;;4920199;29;20093;-84
2022/02/02 06:47:38;;;;;;;108.28;61.47;;;0.90;2201.60;;;;;;4920152;29;20388;-90
2022/02/02 06:50:24;;;;;;;101.40;60.58;;;0.80;2201.60;;;;;;4919915;29;20039;-85
2022/02/02 06:53:26;;;;;;;138.50;74.90;;;0.90;2201.60;;;;;;4920207;29;20024;-86
2022/02/02 07:02:19;;;;;;;118.47;65.43;;;25.60;2201.60;;;;;;4938507;29;20034;-85
2022/02/02 07:07:54;;;;;;;113.55;60.40;;;0.90;2201.60;;;;;;4936726;29;20102;-87
2022/02/02 07:10:40;;;;;;;113.40;63.25;;;25.60;2201.60;;;;;;4920234;29;20039;-86
2022/02/02 07:16:20;;;;;;;109.57;61.63;;;25.60;2201.60;;;;;;4936586;29;20031;-87
2022/02/02 07:19:00;;;;;;;80.40;47.50;;;25.70;2201.60;;;;;;4935534;29;20373;-84
2022/02/02 07:24:16;;;;;;;70.63;45.85;;;25.70;2201.60;;;;;;4936493;29;20051;-87
2022/02/02 07:32:47;;;;;;;65.72;41.15;;;25.80;2201.60;;;;;;4931758;29;20477;-85
2022/02/02 07:35:27;;;;;;;63.30;40.92;;;25.90;2201.60;;;;;;4939741;29;20034;-86
2022/02/02 07:38:07;;;;;;;55.85;34.72;;;25.90;2201.60;;;;;;4923500;29;20036;-87
2022/02/02 07:40:34;;;;;;;62.78;39.13;;;26.00;2201.60;;;;;;4923485;29;20031;-88
2022/02/02 07:43:03;;;;;;;61.47;36.78;;;26.00;2201.60;;;;;;4923500;29;20039;-86
2022/02/02 07:45:35;;;;;;;68.22;47.13;;;25.90;2201.60;;;;;;4923262;29;20063;-84
2022/02/02 07:48:04;;;;;;;73.97;50.25;;;25.90;2201.60;;;;;;4923510;29;20078;-87
2022/02/02 07:50:34;;;;;;;78.20;50.95;;;26.00;2201.60;;;;;;4923241;29;20114;-89
2022/02/02 07:53:11;;;;;;;65.70;42.80;;;51.50;2227.20;;;;;;4923095;29;20034;-85
2022/02/02 07:55:39;;;;;;;75.20;47.50;;;26.20;2201.60;;;;;;4923113;29;20030;-89
2022/02/02 07:58:07;;;;;;;75.65;49.85;;;26.20;2201.60;;;;;;4923023;29;20050;-88
2022/02/02 08:00:35;;;;;;;89.93;52.92;;;26.40;2201.60;;;;;;4922933;29;20036;-86
2022/02/02 08:05:32;;;;;;;103.38;56.47;;;26.40;2201.60;;;;;;4939876;29;20067;-87
2022/02/02 08:10:55;;;;;;;78.70;48.90;;;26.50;2201.60;;;;;;4923114;29;20047;-86
2022/02/02 08:13:36;;;;;;;69.13;40.85;;;26.50;2201.60;;;;;;4939852;29;20031;-86
2022/02/02 08:16:05;;;;;;;70.57;43.45;;;26.40;2201.60;;;;;;4922934;29;20035;-88
2022/02/02 08:18:31;;;;;;;93.75;56.35;;;51.20;2227.20;;;;;;4922747;29;20043;-86
2022/02/02 08:20:57;;;;;;;80.70;49.63;;;51.40;2227.20;;;;;;4922522;29;20028;-86
2022/02/02 08:23:23;;;;;;;67.18;40.13;;;51.30;2227.20;;;;;;4922480;29;20034;-87
2022/02/02 08:25:49;;;;;;;84.63;51.25;;;51.30;2227.20;;;;;;4922625;29;20031;-86
2022/02/02 08:28:18;;;;;;;82.57;52.67;;;51.30;2227.20;;;;;;4922332;29;20032;-91
2022/02/02 08:30:45;;;;;;;79.90;48.63;;;51.40;2227.20;;;;;;4922533;29;20388;-87
2022/02/02 08:33:17;;;;;;;66.10;44.55;;;51.40;2227.20;;;;;;4922389;29;20031;-85
2022/02/02 08:35:48;;;;;;;62.95;41.95;;;51.60;2227.20;;;;;;4922353;29;20030;-86
2022/02/02 08:40:57;;;;;;;54.53;32.00;;;51.50;2227.20;;;;;;4939464;29;20027;-89
2022/02/02 08:43:38;;;;;;;54.15;33.95;;;51.40;2227.20;;;;;;4922128;29;20032;-87
2022/02/02 08:46:09;;;;;;;63.13;37.05;;;51.50;2227.20;;;;;;4922348;29;20065;-88
2022/02/02 08:48:38;;;;;;;57.25;35.63;;;51.60;2227.20;;;;;;4922029;29;20027;-88
2022/02/02 08:51:08;;;;;;;54.45;35.10;;;51.80;2227.20;;;;;;4922030;29;20038;-88
2022/02/02 08:53:43;;;;;;;68.80;41.38;;;52.00;2227.20;;;;;;4922200;29;20494;-86
2022/02/02 08:56:30;;;;;;;62.97;34.30;;;51.80;2227.20;;;;;;4922049;29;20032;-88
2022/02/02 08:59:10;;;;;;;61.47;37.15;;;51.80;2227.20;;;;;;4922265;29;20078;-88
2022/02/02 09:01:37;;;;;;;73.07;44.28;;;51.90;2227.20;;;;;;4939419;29;20030;-87
2022/02/02 09:06:54;;;;;;;58.15;37.05;;;52.10;2227.20;;;;;;4957471;29;20038;-85
2022/02/02 09:09:23;;;;;;;65.40;39.05;;;52.10;2227.20;;;;;;4940345;29;20057;-86
2022/02/02 09:25:37;;;;;;;62.97;42.92;;;77.20;2227.20;;;;;;4956989;29;20108;-86
2022/02/02 09:36:20;;;;;;;77.45;51.40;;;77.60;2227.20;;;;;;4956996;29;20042;-85
2022/02/02 09:38:46;;;;;;;71.82;45.58;;;77.70;2227.20;;;;;;4940092;29;20027;-84
2022/02/02 09:43:49;;;;;;;68.30;44.47;;;102.50;2227.20;;;;;;4955391;29;20836;-84
2022/02/02 09:46:20;;;;;;;65.00;42.63;;;102.40;2227.20;;;;;;4934199;29;20423;-85
2022/02/02 09:48:51;;;;;;;68.88;46.83;;;102.50;2227.20;;;;;;4938930;29;20070;-83
2022/02/02 09:54:22;;;;;;;59.60;42.83;;;102.50;2227.20;;;;;;4926350;29;20070;-82
2022/02/02 09:57:33;;;;;;;53.90;34.72;;;102.50;2227.20;;;;;;4938942;29;20055;-83
2022/02/02 10:15:48;;;;;;;51.83;32.20;;;102.90;2227.20;;;;;;4956662;29;20181;-87
2022/02/02 10:18:23;;;;;;;48.97;34.55;;;103.00;2227.20;;;;;;4939017;29;20105;-85
2022/02/02 10:20:54;;;;;;;38.25;24.20;;;103.00;2227.20;;;;;;4939301;29;20380;-81
2022/02/02 10:23:26;;;;;;;56.90;39.35;;;103.00;2227.20;;;;;;4959242;28;20067;-79
2022/02/02 10:25:57;;;;;;;68.97;41.63;;;103.00;2227.20;;;;;;4939349;29;20091;-85
2022/02/02 10:28:27;;;;;;;72.90;48.00;;;103.10;2227.20;;;;;;4920275;29;20102;-82
2022/02/02 10:30:59;;;;;;;26.17;16.77;;;103.20;2227.20;;;;;;4937029;29;20112;-84
2022/02/02 10:33:30;;;;;;;21.48;14.32;;;103.30;2227.20;;;;;;4920432;29;20087;-83
2022/02/02 10:36:23;;;;;;;25.52;15.73;;;103.30;2227.20;;;;;;4920483;29;20039;-85
2022/02/02 10:39:06;;;;;;;25.52;16.27;;;103.30;2227.20;;;;;;4920286;29;20028;-85
2022/02/02 10:41:59;;;;;;;38.05;20.98;;;103.30;2227.20;;;;;;4920054;29;20119;-86
2022/02/02 10:44:36;;;;;;;58.20;34.75;;;103.30;2227.20;;;;;;4920395;29;20031;-83
2022/02/02 10:47:28;;;;;;;44.67;24.77;;;103.30;2227.20;;;;;;4919469;29;20035;-85
2022/02/02 10:50:19;;;;;;;35.25;19.88;;;103.30;2227.20;;;;;;4918636;29;20066;-84
2022/02/02 10:53:13;;;;;;;32.22;16.33;;;128.10;2252.80;;;;;;4919056;29;20024;-84
2022/02/02 11:07:01;;;;;;;21.30;14.40;;;128.40;2252.80;;;;;;4936583;29;20038;-83
2022/02/02 11:09:20;;;;;;;27.00;17.27;;;128.40;2252.80;;;;;;4931638;29;20040;-83
2022/02/02 11:11:51;;;;;;;36.35;21.30;;;128.60;2252.80;;;;;;4919564;29;20531;-85
2022/02/02 11:14:36;;;;;;;35.50;19.00;;;128.60;2252.80;;;;;;4919894;29;20050;-82
2022/02/02 11:17:29;;;;;;;51.38;28.00;;;128.70;2252.80;;;;;;4919665;29;20070;-86
2022/02/02 11:20:01;;;;;;;23.75;15.13;;;128.70;2252.80;;;;;;4919692;29;20059;-84
2022/02/02 11:22:32;;;;;;;30.33;15.48;;;128.60;2252.80;;;;;;4919835;29;20087;-84
2022/02/02 11:25:04;;;;;;;25.90;14.18;;;128.50;2252.80;;;;;;4919623;29;20032;-82
2022/02/02 11:27:45;;;;;;;30.77;15.98;;;128.40;2252.80;;;;;;4919765;29;20038;-86
2022/02/02 11:30:23;;;;;;;28.65;16.67;;;128.50;2252.80;;;;;;4919467;29;20035;-84
2022/02/02 11:33:22;;;;;;;29.90;17.77;;;128.60;2252.80;;;;;;4922047;29;20027;-85
2022/02/02 11:35:52;;;;;;;23.17;14.57;;;128.70;2252.80;;;;;;4922385;29;20719;-83
2022/02/02 11:38:27;;;;;;;27.67;16.10;;;128.70;2252.80;;;;;;4927826;29;20031;-82
2022/02/02 11:41:12;;;;;;;32.63;18.20;;;128.60;2252.80;;;;;;4930144;29;20031;-87
2022/02/02 11:43:54;;;;;;;41.20;27.63;;;128.50;2252.80;;;;;;4929158;29;20115;-81
2022/02/02 11:46:45;;;;;;;29.67;22.23;;;128.50;2252.80;;;;;;4926919;29;20034;-81
2022/02/02 11:49:19;;;;;;;38.25;23.75;;;128.40;2252.80;;;;;;4936575;29;20023;-84
2022/02/02 11:51:53;;;;;;;44.47;28.17;;;128.40;2252.80;;;;;;4919380;29;20047;-84
2022/02/02 11:54:40;;;;;;;26.02;16.48;;;128.40;2252.80;;;;;;4936468;29;20035;-80
2022/02/02 11:57:17;;;;;;;27.17;16.23;;;128.40;2252.80;;;;;;4919035;29;20031;-83
2022/02/02 12:05:50;;;;;;;39.58;24.17;;;128.50;2252.80;;;;;;4936012;29;20059;-80
2022/02/02 12:11:42;;;;;;;31.80;22.35;;;128.40;2252.80;;;;;;4850674;29;20168;-85
2022/02/02 12:58:00;;;;;;;19.92;11.77;;;128.80;2252.80;;;;;;4938717;29;20090;-80
2022/02/02 13:03:10;;;;;;;24.30;14.95;;;128.90;2252.80;;;;;;4947511;29;20371;-85
2022/02/02 13:05:38;;;;;;;44.85;13.88;;;128.90;2252.80;;;;;;4921377;29;20023;-82
2022/02/02 13:08:05;;;;;;;32.33;20.70;;;153.60;2252.80;;;;;;4921261;29;20047;-81
2022/02/02 13:10:33;;;;;;;69.43;40.30;;;153.60;2252.80;;;;;;4921669;29;20035;-81
2022/02/02 13:13:21;;;;;;;36.15;24.92;;;153.60;2252.80;;;;;;4921497;29;20027;-82
2022/02/02 13:15:53;;;;;;;38.95;24.10;;;153.60;2252.80;;;;;;4938542;29;20477;-86
2022/02/02 13:18:34;;;;;;;42.58;28.48;;;153.60;2252.80;;;;;;4921170;29;20031;-84
2022/02/02 13:24:03;;;;;;;32.53;20.92;;;153.80;2252.80;;;;;;4939475;29;20118;-84
2022/02/02 13:26:50;;;;;;;47.20;29.17;;;153.80;2252.80;;;;;;4940180;29;20075;-84
2022/02/02 13:29:28;;;;;;;45.33;28.38;;;153.90;2252.80;;;;;;4920944;29;20515;-85
2022/02/02 13:43:50;;;;;;;58.92;44.50;;;153.80;2252.80;;;;;;4936847;29;20494;-80
2022/02/02 13:54:57;;;;;;;48.40;31.45;;;128.90;2252.80;;;;;;4956538;29;20038;-80
2022/02/02 14:07:46;;;;;;;45.05;29.50;;;128.80;2252.80;;;;;;4945795;29;20035;-80
2022/02/02 14:10:35;;;;;;;55.85;33.40;;;128.90;2252.80;;;;;;4929842;29;20046;-81
2022/02/02 14:32:09;;;;;;;58.00;38.97;;;128.90;2252.80;;;;;;4961411;29;20031;-78
2022/02/02 14:34:35;;;;;;;70.60;48.95;;;128.90;2252.80;;;;;;4945482;29;20039;-75
2022/02/02 14:37:02;;;;;;;84.93;60.25;;;153.60;2252.80;;;;;;4941691;29;20074;-79
2022/02/02 14:39:42;;;;;;;69.90;49.75;;;153.60;2252.80;;;;;;4938481;29;20031;-83
2022/02/02 14:42:14;;;;;;;85.93;54.28;;;153.60;2252.80;;;;;;4956320;29;20043;-82
2022/02/02 14:44:42;;;;;;;97.80;62.33;;;153.60;2252.80;;;;;;4955806;29;20073;-80
2022/02/02 14:47:16;;;;;;;85.93;56.03;;;128.90;2252.80;;;;;;4954034;29;20467;-82
2022/02/02 14:52:23;;;;;;;65.38;44.03;;;153.60;2252.80;;;;;;4954964;29;20420;-81
2022/02/02 15:31:45;;;;;;;110.97;73.97;;;128.90;2252.80;;;;;;4955380;29;20116;-73
2022/02/02 15:34:21;;;;;;;131.52;71.95;;;128.90;2252.80;;;;;;4938037;29;20532;-80
2022/02/02 15:39:24;;;;;;;141.70;78.40;;;128.80;2252.80;;;;;;4955150;29;20034;-79
2022/02/02 16:03:08;;;;;;;118.55;74.28;;;128.70;2252.80;;;;;;4958774;29;20090;-80
2022/02/02 16:05:42;;;;;;;101.10;66.13;;;128.60;2252.80;;;;;;4941497;29;20031;-79
2022/02/02 16:08:10;;;;;;;105.82;69.82;;;128.70;2252.80;;;;;;4958854;29;20033;-79
2022/02/02 16:11:14;;;;;;;184.13;101.95;;;128.50;2252.80;;;;;;4941455;29;20035;-84
2022/02/02 16:13:42;;;;;;;89.10;57.03;;;128.50;2252.80;;;;;;4957741;28;20023;-82
2022/02/02 16:37:43;;;;;;;94.57;60.92;;;128.20;2252.80;;;;;;4958414;29;20031;-82
2022/02/02 16:40:08;;;;;;;64.50;41.20;;;128.20;2252.80;;;;;;4957280;29;20035;-84
2022/02/02 16:43:09;;;;;;;39.25;24.77;;;128.10;2252.80;;;;;;4941278;29;20475;-83
2022/02/02 16:45:35;;;;;;;46.67;31.00;;;128.10;2252.80;;;;;;4958257;29;20035;-84
2022/02/02 16:48:02;;;;;;;49.20;30.08;;;128.20;2252.80;;;;;;4940768;29;20063;-82
2022/02/02 16:50:34;;;;;;;55.92;35.83;;;128.50;2252.80;;;;;;4941022;29;20459;-81
2022/02/02 16:53:27;;;;;;;;;;;128.10;2252.80;;;;;;4958391;29;20133;-84
2022/02/02 17:29:30;;;;;;;88.03;55.90;;;102.90;2227.20;;;;;;4957156;29;20086;-83
2022/02/02 17:31:21;;;;;;;58.47;39.05;;;102.90;2227.20;;;;;;4956913;28;20396;-82
2022/02/02 17:33:54;;;;;;;49.13;36.13;;;103.00;2227.20;;;;;;4940084;29;20034;-83
2022/02/02 17:36:28;;;;;;;;;;;103.00;2227.20;;;;;;4940739;29;20055;-82
2022/02/02 17:38:59;;;;;;;92.75;54.53;;;103.00;2227.20;;;;;;4940219;29;19922;-83
2022/02/02 18:21:17;;;;;;;124.80;78.85;;;103.00;2227.20;;;;;;4956625;29;20538;-87
2022/02/02 18:24:04;;;;;;;114.78;67.85;;;103.00;2227.20;;;;;;4939058;29;20411;-81
2022/02/02 18:26:40;;;;;;;140.18;79.03;;;103.00;2227.20;;;;;;4939371;29;20035;-86
2022/02/02 18:29:15;;;;;;;194.98;110.72;;;103.00;2227.20;;;;;;4952447;29;20086;-84
2022/02/02 18:34:34;;;;;;;201.10;126.78;;;102.90;2227.20;;;;;;4947195;29;20059;-82
2022/02/02 18:53:42;;;;;;;144.90;92.55;;;102.90;2227.20;;;;;;4902355;29;20042;-85
2022/02/02 18:56:21;;;;;;;163.43;102.18;;;102.90;2227.20;;;;;;4955298;29;20062;-85
2022/02/02 19:56:15;;;;;;;134.48;83.82;;;102.70;2227.20;;;;;;4959320;29;20580;-83
2022/02/02 20:04:32;;;;;;;122.75;80.25;;;102.70;2227.20;;;;;;4962057;29;20042;-79
2022/02/02 20:10:27;;;;;;;405.00;244.02;;;102.60;2227.20;;;;;;4960520;29;20039;-83
2022/02/02 20:12:14;;;;;;;343.50;215.05;;;102.60;2227.20;;;;;;4942472;28;20047;-86
2022/02/02 20:14:41;;;;;;;267.58;158.98;;;102.80;2227.20;;;;;;4942348;29;20032;-83
2022/02/02 20:17:11;;;;;;;235.38;142.20;;;103.20;2227.20;;;;;;4958565;29;20467;-84
2022/02/02 20:19:43;;;;;;;249.25;151.02;;;102.70;2227.20;;;;;;4941265;29;20508;-83
2022/02/02 20:22:10;;;;;;;251.15;155.88;;;102.70;2227.20;;;;;;4941051;29;20050;-86
2022/02/02 20:24:44;;;;;;;241.40;163.38;;;102.70;2227.20;;;;;;4940341;29;20035;-86
2022/02/02 20:27:13;;;;;;;273.77;178.00;;;102.60;2227.20;;;;;;4940565;29;20035;-81
2022/02/02 20:29:38;;;;;;;278.80;176.60;;;102.60;2227.20;;;;;;4957371;29;20038;-84
2022/02/02 20:32:06;;;;;;;143.88;96.05;;;102.60;2227.20;;;;;;4939848;28;20035;-80
2022/02/02 20:34:32;;;;;;;130.93;87.82;;;102.50;2227.20;;;;;;4956919;29;20027;-82
2022/02/02 20:36:57;;;;;;;132.48;82.90;;;102.50;2227.20;;;;;;4940977;29;20050;-83
2022/02/02 20:41:57;;;;;;;122.47;71.22;;;102.60;2227.20;;;;;;4958387;29;20090;-84
2022/02/02 20:44:36;;;;;;;74.20;43.80;;;102.60;2227.20;;;;;;4940872;29;20028;-82
2022/02/02 21:00:14;;;;;;;96.80;59.95;;;102.80;2227.20;;;;;;4941070;29;20035;-82
2022/02/02 21:03:33;;;;;;;44.92;26.58;;;103.30;2227.20;;;;;;4957988;29;20078;-82
2022/02/02 21:11:38;;;;;;;66.80;39.63;;;128.10;2252.80;;;;;;4957690;29;20030;-85
2022/02/02 21:14:03;;;;;;;;;;;128.10;2252.80;;;;;;4957778;29;20384;-83
2022/02/02 21:16:36;;;;;;;37.92;23.65;;;128.10;2252.80;;;;;;4940455;29;19907;-81
2022/02/02 21:19:05;;;;;;;28.17;17.45;;;128.10;2252.80;;;;;;4940055;29;20055;-83
2022/02/02 21:21:51;;;;;;;22.27;15.20;;;128.00;2252.80;;;;;;4957648;29;20114;-81
2022/02/02 21:24:31;;;;;;;27.10;16.88;;;128.00;2252.80;;;;;;4940326;29;20063;-84
2022/02/02 21:29:41;;;;;;;23.80;15.60;;;128.00;2252.80;;;;;;4957611;29;20115;-83
2022/02/02 21:32:07;;;;;;;36.15;22.98;;;128.00;2252.80;;;;;;4940059;29;20121;-85
2022/02/02 21:34:33;;;;;;;58.13;34.70;;;103.30;2227.20;;;;;;4940247;29;20043;-78
2022/02/02 21:37:04;;;;;;;71.25;43.42;;;128.00;2252.80;;;;;;4940219;29;20035;-82
2022/02/02 21:39:31;;;;;;;42.22;26.67;;;103.30;2227.20;;;;;;4940183;29;20031;-85
2022/02/02 21:41:58;;;;;;;77.00;47.42;;;128.00;2252.80;;;;;;4939893;29;20027;-84
2022/02/02 21:44:24;;;;;;;37.83;24.25;;;128.00;2252.80;;;;;;4945833;29;20118;-79
2022/02/02 21:46:52;;;;;;;44.17;27.80;;;103.20;2227.20;;;;;;4962412;29;20122;-81
2022/02/02 21:49:19;;;;;;;50.50;30.85;;;103.20;2227.20;;;;;;4943155;29;20031;-85
2022/02/02 21:52:01;;;;;;;28.13;17.55;;;103.00;2227.20;;;;;;4940503;29;20044;-82
2022/02/02 21:54:28;;;;;;;45.70;28.67;;;102.90;2227.20;;;;;;4939435;29;20031;-86
2022/02/02 21:56:55;;;;;;;34.55;20.63;;;102.90;2227.20;;;;;;4940056;29;20431;-87
2022/02/02 21:59:20;;;;;;;34.67;25.23;;;102.90;2227.20;;;;;;4939363;29;20031;-84
2022/02/02 22:01:46;;;;;;;26.70;19.05;;;102.90;2227.20;;;;;;4939456;29;20032;-85
2022/02/02 22:04:12;;;;;;;26.70;16.00;;;102.90;2227.20;;;;;;4939659;29;20074;-84
2022/02/02 22:06:38;;;;;;;33.35;22.80;;;102.90;2227.20;;;;;;4956166;29;20098;-83
2022/02/02 22:09:04;;;;;;;23.70;14.93;;;102.90;2227.20;;;;;;4939701;29;20031;-85
2022/02/02 22:11:30;;;;;;;28.17;18.23;;;103.00;2227.20;;;;;;4939332;29;20023;-87
2022/02/02 22:14:03;;;;;;;24.63;15.88;;;103.00;2227.20;;;;;;4956401;29;20027;-83
2022/02/02 22:16:29;;;;;;;24.40;16.13;;;102.90;2227.20;;;;;;4939440;29;20086;-84
2022/02/02 22:18:56;;;;;;;34.78;24.33;;;102.90;2227.20;;;;;;4938703;29;20059;-84
2022/02/02 22:21:24;;;;;;;42.92;29.90;;;102.90;2227.20;;;;;;4938936;29;20039;-84
2022/02/02 22:23:51;;;;;;;48.03;33.83;;;102.90;2227.20;;;;;;4939428;29;20039;-83
2022/02/02 22:26:19;;;;;;;62.65;38.72;;;102.90;2227.20;;;;;;4956683;29;20110;-85
2022/02/02 22:28:45;;;;;;;53.25;33.00;;;102.90;2227.20;;;;;;4939057;29;20142;-82
2022/02/02 22:31:11;;;;;;;84.82;51.72;;;103.00;2227.20;;;;;;4954312;29;20023;-87
2022/02/02 22:33:37;;;;;;;84.65;50.60;;;103.00;2227.20;;;;;;4938682;29;20130;-85
2022/02/02 22:36:03;;;;;;;70.03;44.85;;;103.00;2227.20;;;;;;4938207;29;20539;-83
2022/02/02 22:38:29;;;;;;;58.83;41.00;;;103.10;2227.20;;;;;;4938086;29;20027;-84
2022/02/02 22:40:57;;;;;;;37.33;20.80;;;103.00;2227.20;;;;;;4938233;29;20071;-84
2022/02/02 22:43:23;;;;;;;49.33;26.05;;;103.00;2227.20;;;;;;4938224;29;20031;-86
2022/02/02 22:45:51;;;;;;;34.25;20.25;;;102.90;2227.20;;;;;;4938373;29;20035;-83
2022/02/02 22:48:21;;;;;;;58.65;33.63;;;102.90;2227.20;;;;;;4954043;29;20083;-86
2022/02/02 22:50:47;;;;;;;38.15;21.38;;;102.90;2227.20;;;;;;4938194;29;20038;-83
2022/02/02 22:53:13;;;;;;;23.92;14.10;;;102.90;2227.20;;;;;;4915823;29;20027;-86
2022/02/02 22:55:39;;;;;;;19.00;12.13;;;102.80;2227.20;;;;;;4935875;29;20038;-83
2022/02/02 22:58:05;;;;;;;23.10;15.65;;;102.80;2227.20;;;;;;4919250;29;20039;-84
2022/02/02 23:00:34;;;;;;;27.13;16.83;;;102.80;2227.20;;;;;;4919246;29;20070;-85
2022/02/02 23:03:03;;;;;;;35.80;20.35;;;102.80;2227.20;;;;;;4919228;29;20461;-84
2022/02/02 23:05:36;;;;;;;25.10;14.75;;;102.80;2227.20;;;;;;4916586;29;20031;-82
2022/02/02 23:08:09;;;;;;;33.08;18.40;;;102.70;2227.20;;;;;;4938086;29;20039;-82
2022/02/02 23:10:36;;;;;;;24.73;16.02;;;102.60;2227.20;;;;;;4935062;29;20050;-86
2022/02/02 23:13:02;;;;;;;28.50;17.08;;;102.60;2227.20;;;;;;4937427;29;20035;-83
2022/02/02 23:15:54;;;;;;;36.72;24.73;;;102.70;2227.20;;;;;;4938016;29;20027;-85
2022/02/02 23:18:20;;;;;;;55.97;31.65;;;102.60;2227.20;;;;;;4953332;29;20467;-87
2022/02/02 23:20:50;;;;;;;59.60;34.95;;;102.60;2227.20;;;;;;4937885;29;20043;-81
2022/02/02 23:23:22;;;;;;;25.70;15.48;;;102.60;2227.20;;;;;;4937655;29;20050;-80
2022/02/02 23:25:49;;;;;;;25.25;16.50;;;102.60;2227.20;;;;;;4937934;29;20023;-83
2022/02/02 23:28:43;;;;;;;21.70;12.93;;;102.70;2227.20;;;;;;4936973;29;20054;-83
2022/02/02 23:31:12;;;;;;;26.52;15.35;;;102.70;2227.20;;;;;;4934521;29;20464;-82
2022/02/02 23:33:41;;;;;;;21.88;13.25;;;102.80;2227.20;;;;;;4937567;29;20043;-83
2022/02/02 23:36:08;;;;;;;17.50;11.48;;;102.80;2227.20;;;;;;4937436;29;20032;-86
2022/02/02 23:38:34;;;;;;;15.70;9.77;;;102.80;2227.20;;;;;;4937401;29;20035;-84
2022/02/02 23:43:28;;;;;;;20.13;12.57;;;103.00;2227.20;;;;;;4954720;29;20482;-80
2022/02/02 23:46:04;;;;;;;11.88;8.35;;;103.00;2227.20;;;;;;4934895;29;20118;-85
2022/02/02 23:48:32;;;;;;;23.67;14.05;;;103.10;2227.20;;;;;;4932511;29;20031;-82
2022/02/02 23:51:06;;;;;;;17.27;10.98;;;103.10;2227.20;;;;;;4937387;29;20082;-80